Time;durP1;ratioP1;P1;durP2;ratioP2;P2;SDS_P1;SDS_P2;PMS_P1;PMS_P2;Temp;Humidity;BMP_temperature;BMP_pressure;BME280_temperature;BME280_humidity;BME280_pressure;Samples;Min_cycle;Max_cycle;Signal;HPM_P1;HPM_P2
2022/11/10 00:00:13;;;;;;;12.80;2.83;;;9.60;99.90;;;;;;4893342;29;20048;-68
2022/11/10 00:02:42;;;;;;;14.27;3.20;;;9.50;99.90;;;;;;4908533;29;20092;-65
2022/11/10 00:05:12;;;;;;;11.30;4.20;;;9.60;99.90;;;;;;4896708;29;20051;-65
2022/11/10 00:07:38;;;;;;;13.73;4.38;;;9.60;99.90;;;;;;4900004;29;21476;-66
2022/11/10 00:10:05;;;;;;;14.35;3.70;;;9.60;99.90;;;;;;4919829;29;20090;-67
2022/11/10 00:12:32;;;;;;;12.25;3.40;;;9.50;99.90;;;;;;4899901;29;20062;-64
2022/11/10 00:17:43;;;;;;;13.15;3.65;;;9.50;99.90;;;;;;4897209;29;20074;-68
2022/11/10 00:20:10;;;;;;;12.15;3.55;;;9.50;99.90;;;;;;4913390;29;20044;-68
2022/11/10 00:22:37;;;;;;;12.68;3.22;;;9.50;99.90;;;;;;4914553;29;20047;-66
2022/11/10 00:25:04;;;;;;;11.13;3.53;;;9.50;99.90;;;;;;4916235;29;20052;-66
2022/11/10 00:27:32;;;;;;;9.82;3.60;;;9.50;99.90;;;;;;4902375;29;20090;-65
2022/11/10 00:29:58;;;;;;;13.02;3.63;;;9.50;99.90;;;;;;4917342;29;20086;-68
2022/11/10 00:32:24;;;;;;;14.07;3.63;;;9.50;99.90;;;;;;4897671;29;20502;-68
2022/11/10 00:34:49;;;;;;;15.73;3.65;;;9.50;99.90;;;;;;4903068;29;20040;-68
2022/11/10 00:37:15;;;;;;;15.48;3.75;;;9.50;99.90;;;;;;4902133;29;20048;-66
2022/11/10 00:39:41;;;;;;;15.23;4.28;;;9.50;99.90;;;;;;4904769;29;20071;-66
2022/11/10 00:42:07;;;;;;;15.27;3.60;;;9.50;99.90;;;;;;4900044;29;20040;-65
2022/11/10 00:44:33;;;;;;;15.50;3.85;;;9.50;99.90;;;;;;4899277;29;20056;-68
2022/11/10 00:46:59;;;;;;;15.65;3.58;;;9.60;99.90;;;;;;4900165;29;20481;-69
2022/11/10 00:49:25;;;;;;;21.90;4.13;;;9.60;99.90;;;;;;4889048;29;20051;-66
2022/11/10 00:51:51;;;;;;;14.57;3.58;;;9.50;99.90;;;;;;4900897;29;20052;-67
2022/11/10 00:54:17;;;;;;;17.80;3.75;;;9.50;99.90;;;;;;4914030;29;21296;-68
2022/11/10 00:56:42;;;;;;;10.48;3.45;;;9.50;99.90;;;;;;4903174;29;20056;-66
2022/11/10 00:59:08;;;;;;;14.20;4.00;;;9.50;99.90;;;;;;4914518;29;20635;-65
2022/11/10 01:01:34;;;;;;;15.60;3.60;;;9.50;99.90;;;;;;4897012;29;20486;-66
2022/11/10 01:04:00;;;;;;;16.50;3.67;;;9.50;99.90;;;;;;4907175;29;20042;-67
2022/11/10 01:06:26;;;;;;;14.13;3.03;;;9.50;99.90;;;;;;4870807;29;20051;-68
2022/11/10 01:08:51;;;;;;;16.55;3.67;;;9.50;99.90;;;;;;4918455;29;20913;-68
2022/11/10 01:11:21;;;;;;;16.20;4.07;;;9.50;99.90;;;;;;4897311;29;20048;-68
2022/11/10 01:13:49;;;;;;;17.10;3.97;;;9.50;99.90;;;;;;4930520;29;20654;-68
2022/11/10 01:16:18;;;;;;;23.35;3.72;;;9.50;99.90;;;;;;4932577;28;20087;-67
2022/11/10 01:18:49;;;;;;;15.18;3.83;;;9.50;99.90;;;;;;4942624;29;20101;-65
2022/11/10 01:21:15;;;;;;;14.80;4.03;;;9.50;99.90;;;;;;4932680;29;20040;-69
2022/11/10 01:23:40;;;;;;;17.05;4.10;;;9.50;99.90;;;;;;4936397;29;20054;-66
2022/11/10 01:26:07;;;;;;;17.80;4.22;;;9.50;99.90;;;;;;4910151;29;20051;-68
2022/11/10 01:28:34;;;;;;;13.85;4.60;;;9.50;99.90;;;;;;4937130;29;20393;-68
2022/11/10 01:31:06;;;;;;;15.77;5.63;;;9.50;99.90;;;;;;4936640;28;20054;-64
2022/11/10 01:33:32;;;;;;;22.33;7.35;;;9.50;99.90;;;;;;4938299;29;20046;-67
2022/11/10 01:35:58;;;;;;;25.10;6.15;;;9.50;99.90;;;;;;4935057;28;20051;-69
2022/11/10 01:38:30;;;;;;;20.50;7.03;;;9.50;99.90;;;;;;4929075;29;20055;-68
2022/11/10 01:40:57;;;;;;;23.58;9.68;;;9.50;99.90;;;;;;4926246;29;20403;-65
2022/11/10 01:43:23;;;;;;;27.60;11.50;;;9.40;99.90;;;;;;4936226;29;20055;-67
2022/11/10 01:45:54;;;;;;;24.95;10.52;;;9.50;99.90;;;;;;4945271;28;24739;-67
2022/11/10 01:48:44;;;;;;;32.13;9.75;;;9.40;99.90;;;;;;4915846;29;20040;-66
2022/11/10 01:51:36;;;;;;;18.95;8.80;;;9.50;99.90;;;;;;4934996;29;20131;-65
2022/11/10 01:54:06;;;;;;;20.42;6.15;;;9.40;99.90;;;;;;4934983;28;20039;-65
2022/11/10 01:56:37;;;;;;;24.42;5.88;;;9.40;99.90;;;;;;4934639;29;20043;-67
2022/11/10 01:59:08;;;;;;;19.08;6.70;;;9.40;99.90;;;;;;4914881;29;20044;-65
2022/11/10 02:01:34;;;;;;;21.80;6.93;;;9.40;99.90;;;;;;4938878;29;20051;-68
2022/11/10 02:04:07;;;;;;;28.65;9.73;;;9.40;99.90;;;;;;4916914;28;20090;-66
2022/11/10 02:06:37;;;;;;;15.77;6.60;;;9.40;99.90;;;;;;4933178;29;20040;-68
2022/11/10 02:09:03;;;;;;;19.77;5.55;;;9.40;99.90;;;;;;4932121;29;20035;-66
2022/11/10 02:11:30;;;;;;;21.80;5.97;;;9.40;99.90;;;;;;4932073;28;20048;-68
2022/11/10 02:13:57;;;;;;;21.30;6.18;;;9.40;99.90;;;;;;4929163;29;20060;-68
2022/11/10 02:16:23;;;;;;;12.48;5.53;;;9.40;99.90;;;;;;4931530;29;20062;-69
2022/11/10 02:18:49;;;;;;;15.75;5.35;;;9.40;99.90;;;;;;4928019;29;20047;-68
2022/11/10 02:21:19;;;;;;;27.67;7.55;;;9.40;99.90;;;;;;4931507;28;21982;-68
2022/11/10 02:23:53;;;;;;;23.15;7.80;;;9.40;99.90;;;;;;4931243;29;24632;-68
2022/11/10 02:26:22;;;;;;;26.88;10.10;;;9.50;99.90;;;;;;4947460;28;20048;-66
2022/11/10 02:28:49;;;;;;;27.20;9.95;;;9.50;99.90;;;;;;4930939;29;20055;-68
2022/11/10 02:31:15;;;;;;;21.80;6.32;;;9.50;99.90;;;;;;4934270;28;20050;-65
2022/11/10 02:33:41;;;;;;;18.42;6.07;;;9.50;99.90;;;;;;4938030;28;20051;-68
2022/11/10 02:36:07;;;;;;;22.17;5.43;;;9.50;99.90;;;;;;4938423;29;20066;-68
2022/11/10 02:38:33;;;;;;;23.55;5.97;;;9.50;99.90;;;;;;4932129;29;20066;-68
2022/11/10 02:40:58;;;;;;;20.30;6.97;;;9.50;99.90;;;;;;4932190;29;20051;-68
2022/11/10 02:43:24;;;;;;;25.92;6.70;;;9.40;99.90;;;;;;4937137;29;20412;-69
2022/11/10 02:45:50;;;;;;;20.25;7.03;;;9.40;99.90;;;;;;4931111;29;20102;-68
2022/11/10 02:48:16;;;;;;;18.33;6.63;;;9.40;99.90;;;;;;4936992;28;20054;-69
2022/11/10 02:50:42;;;;;;;20.83;6.60;;;9.40;99.90;;;;;;4933205;28;20578;-68
2022/11/10 02:53:08;;;;;;;25.02;9.60;;;9.40;99.90;;;;;;4918622;29;20044;-68
2022/11/10 02:55:34;;;;;;;22.65;8.35;;;9.40;99.90;;;;;;4931489;29;20094;-68
2022/11/10 02:57:59;;;;;;;30.88;10.20;;;9.40;99.90;;;;;;4930124;29;20153;-65
2022/11/10 03:00:26;;;;;;;25.30;10.05;;;9.30;99.90;;;;;;4930374;29;20494;-69
2022/11/10 03:03:00;;;;;;;32.85;13.30;;;9.30;99.90;;;;;;4924380;29;20047;-69
2022/11/10 03:05:27;;;;;;;27.35;13.90;;;9.40;99.90;;;;;;4931083;28;20047;-68
2022/11/10 03:07:55;;;;;;;33.97;13.93;;;9.30;99.90;;;;;;4931859;28;20782;-66
2022/11/10 03:10:21;;;;;;;27.45;10.98;;;9.40;99.90;;;;;;4932406;28;20058;-67
2022/11/10 03:12:47;;;;;;;26.10;7.75;;;9.30;99.90;;;;;;4939347;29;20051;-68
2022/11/10 03:15:13;;;;;;;20.65;7.20;;;9.30;99.90;;;;;;4901726;29;20384;-67
2022/11/10 03:17:39;;;;;;;20.42;8.68;;;9.30;99.90;;;;;;4897210;29;20766;-68
2022/11/10 03:20:06;;;;;;;29.98;11.73;;;9.30;99.90;;;;;;4894204;29;20059;-69
2022/11/10 03:22:32;;;;;;;31.05;13.65;;;9.30;99.90;;;;;;4896733;29;20487;-69
2022/11/10 03:24:57;;;;;;;35.10;13.88;;;9.30;99.90;;;;;;4903346;29;20086;-68
2022/11/10 03:27:23;;;;;;;27.10;11.98;;;9.30;99.90;;;;;;4896695;29;20047;-67
2022/11/10 03:29:49;;;;;;;33.63;13.15;;;9.30;99.90;;;;;;4897659;29;20545;-66
2022/11/10 03:32:15;;;;;;;31.80;13.52;;;9.30;99.90;;;;;;4882910;29;20103;-69
2022/11/10 03:34:40;;;;;;;26.83;10.20;;;9.30;99.90;;;;;;4889064;29;20048;-69
2022/11/10 03:37:06;;;;;;;24.75;7.10;;;9.30;99.90;;;;;;4889794;29;20091;-65
2022/11/10 03:39:32;;;;;;;23.83;6.70;;;9.40;99.90;;;;;;4898033;29;20044;-67
2022/11/10 03:41:58;;;;;;;28.20;8.75;;;9.30;99.90;;;;;;4885917;29;20055;-68
2022/11/10 03:44:23;;;;;;;17.25;8.13;;;9.30;99.90;;;;;;4912557;29;20062;-69
2022/11/10 03:46:49;;;;;;;19.20;6.50;;;9.30;99.90;;;;;;4901056;29;20048;-69
2022/11/10 03:49:15;;;;;;;23.63;7.07;;;9.30;99.90;;;;;;4902165;29;20066;-69
2022/11/10 03:51:41;;;;;;;18.50;6.43;;;9.30;99.90;;;;;;4915769;29;20049;-67
2022/11/10 03:54:07;;;;;;;20.30;6.10;;;9.30;99.90;;;;;;4914775;29;20063;-66
2022/11/10 03:56:33;;;;;;;24.92;7.22;;;9.30;99.90;;;;;;4901854;29;20040;-66
2022/11/10 03:58:58;;;;;;;24.05;6.90;;;9.30;99.90;;;;;;4901169;29;20072;-65
2022/11/10 04:01:24;;;;;;;28.27;10.18;;;9.30;99.90;;;;;;4884358;29;20044;-69
2022/11/10 04:03:50;;;;;;;28.38;11.10;;;9.30;99.90;;;;;;4907744;29;20052;-69
2022/11/10 04:09:00;;;;;;;28.35;10.20;;;9.30;99.90;;;;;;4900519;29;20086;-69
2022/11/10 04:16:57;;;;;;;22.38;6.32;;;9.30;99.90;;;;;;4932323;29;20047;-69
2022/11/10 04:19:24;;;;;;;24.13;7.38;;;9.30;99.90;;;;;;4932110;29;20044;-69
2022/11/10 04:21:50;;;;;;;22.65;6.80;;;9.30;99.90;;;;;;4934410;28;20558;-65
2022/11/10 04:24:16;;;;;;;27.77;8.43;;;9.20;99.90;;;;;;4937198;28;20050;-68
2022/11/10 04:26:43;;;;;;;31.58;8.15;;;9.20;99.90;;;;;;4937985;29;20043;-69
2022/11/10 04:29:11;;;;;;;31.00;10.73;;;9.30;99.90;;;;;;4932468;29;20047;-69
2022/11/10 04:31:41;;;;;;;34.13;10.73;;;9.30;99.90;;;;;;4942623;29;20090;-65
2022/11/10 04:34:09;;;;;;;30.05;11.90;;;9.30;99.90;;;;;;4940839;29;20043;-69
2022/11/10 04:36:37;;;;;;;27.42;9.32;;;9.30;99.90;;;;;;4942491;29;20114;-69
2022/11/10 04:39:04;;;;;;;29.23;9.43;;;9.30;99.90;;;;;;4932070;29;20459;-69
2022/11/10 04:41:31;;;;;;;34.22;13.82;;;9.40;99.90;;;;;;4931703;29;20142;-69
2022/11/10 04:43:58;;;;;;;29.27;11.02;;;9.40;99.90;;;;;;4908596;29;20505;-68
2022/11/10 04:46:25;;;;;;;40.42;15.20;;;9.40;99.90;;;;;;4930909;29;20044;-66
2022/11/10 04:48:52;;;;;;;32.58;13.35;;;9.40;99.90;;;;;;4935306;29;20058;-65
2022/11/10 04:51:20;;;;;;;37.20;14.25;;;9.50;99.90;;;;;;4937076;29;20059;-67
2022/11/10 04:53:46;;;;;;;42.03;15.27;;;9.50;99.90;;;;;;4939053;29;20414;-67
2022/11/10 04:56:17;;;;;;;29.63;12.90;;;9.50;99.90;;;;;;4933515;28;20047;-67
2022/11/10 04:58:43;;;;;;;30.52;9.63;;;9.50;99.90;;;;;;4941926;29;20102;-68
2022/11/10 05:01:13;;;;;;;34.33;10.68;;;9.50;99.90;;;;;;4940832;29;20043;-69
2022/11/10 05:03:40;;;;;;;33.60;10.82;;;9.60;99.90;;;;;;4935360;29;20454;-66
2022/11/10 05:06:06;;;;;;;39.17;10.27;;;9.60;99.90;;;;;;4918957;29;20528;-68
2022/11/10 05:08:32;;;;;;;28.75;7.72;;;9.60;99.90;;;;;;4936557;29;20425;-68
2022/11/10 05:10:58;;;;;;;31.58;8.68;;;9.60;99.90;;;;;;4926101;29;20058;-67
2022/11/10 05:13:24;;;;;;;23.00;6.97;;;9.60;99.90;;;;;;4927210;29;20064;-68
2022/11/10 05:15:51;;;;;;;29.08;7.90;;;9.70;99.90;;;;;;4902277;29;20112;-66
2022/11/10 05:18:17;;;;;;;20.58;6.40;;;9.70;99.90;;;;;;4890221;29;20047;-66
2022/11/10 05:20:43;;;;;;;24.20;7.40;;;9.70;99.90;;;;;;4890561;29;20047;-68
2022/11/10 05:25:53;;;;;;;28.83;9.00;;;9.70;99.90;;;;;;4916588;29;20135;-68
2022/11/10 05:28:18;;;;;;;27.73;9.25;;;9.70;99.90;;;;;;4887669;29;20135;-69
2022/11/10 05:30:44;;;;;;;31.58;10.40;;;9.70;99.90;;;;;;4904709;29;20062;-68
2022/11/10 05:33:10;;;;;;;39.53;16.13;;;9.70;99.90;;;;;;4916214;29;20051;-63
2022/11/10 05:35:37;;;;;;;27.65;9.98;;;9.70;99.90;;;;;;4906792;29;20399;-65
2022/11/10 05:38:03;;;;;;;30.27;10.18;;;9.80;99.90;;;;;;4903933;29;20044;-66
2022/11/10 05:40:29;;;;;;;30.20;8.80;;;9.80;99.90;;;;;;4896898;29;20498;-66
2022/11/10 05:42:58;;;;;;;23.25;7.60;;;9.70;99.90;;;;;;4904474;29;20543;-64
2022/11/10 05:45:26;;;;;;;29.48;6.93;;;9.80;99.90;;;;;;4869309;29;20062;-68
2022/11/10 05:47:52;;;;;;;22.90;6.47;;;9.80;99.90;;;;;;4911096;29;20047;-70
2022/11/10 05:50:20;;;;;;;25.88;7.53;;;9.80;99.90;;;;;;4905049;29;20090;-68
2022/11/10 05:52:51;;;;;;;28.23;6.13;;;9.80;99.90;;;;;;4895616;29;20123;-69
2022/11/10 05:55:22;;;;;;;27.95;7.43;;;9.80;99.90;;;;;;4913026;29;20088;-69
2022/11/10 05:57:49;;;;;;;33.33;7.65;;;9.80;99.90;;;;;;4905476;29;20058;-70
2022/11/10 06:00:17;;;;;;;26.88;7.53;;;9.80;99.90;;;;;;4902042;29;21213;-69
2022/11/10 06:02:43;;;;;;;34.88;9.98;;;9.80;99.90;;;;;;4896978;29;20040;-70
2022/11/10 06:05:10;;;;;;;34.53;11.95;;;9.80;99.90;;;;;;4891138;29;20100;-64
2022/11/10 06:07:37;;;;;;;35.47;11.13;;;9.80;99.90;;;;;;4903501;29;20051;-65
2022/11/10 06:10:03;;;;;;;34.95;13.95;;;9.80;99.90;;;;;;4916227;29;20079;-68
2022/11/10 06:12:29;;;;;;;34.22;11.93;;;9.80;99.90;;;;;;4896988;29;20063;-67
2022/11/10 06:14:59;;;;;;;34.25;10.48;;;9.80;99.90;;;;;;4921279;29;20063;-66
2022/11/10 06:17:25;;;;;;;36.63;11.55;;;9.80;99.90;;;;;;4938829;28;20168;-70
2022/11/10 06:19:51;;;;;;;36.72;9.45;;;9.80;99.90;;;;;;4927045;29;20780;-66
2022/11/10 06:22:17;;;;;;;30.02;7.53;;;9.90;99.90;;;;;;4930630;28;20102;-69
2022/11/10 06:24:43;;;;;;;31.20;8.18;;;9.90;99.90;;;;;;4928169;29;20051;-67
2022/11/10 06:27:08;;;;;;;32.30;9.68;;;9.90;99.90;;;;;;4931944;29;20150;-69
2022/11/10 06:29:34;;;;;;;33.58;13.23;;;9.90;99.90;;;;;;4914426;29;20071;-68
2022/11/10 06:32:00;;;;;;;31.38;10.13;;;9.90;99.90;;;;;;4926123;28;20059;-66
2022/11/10 06:34:27;;;;;;;40.65;12.32;;;9.90;99.90;;;;;;4930057;29;20134;-67
2022/11/10 06:36:52;;;;;;;39.00;11.88;;;9.90;99.90;;;;;;4924068;29;20043;-67
2022/11/10 06:39:18;;;;;;;43.63;16.38;;;9.90;99.90;;;;;;4928294;29;20092;-68
2022/11/10 06:41:44;;;;;;;33.20;13.60;;;10.00;99.90;;;;;;4937661;29;21394;-68
2022/11/10 06:44:11;;;;;;;39.15;13.73;;;9.90;99.90;;;;;;4918285;29;20047;-65
2022/11/10 06:46:36;;;;;;;42.63;14.00;;;10.00;99.90;;;;;;4933410;29;25759;-68
2022/11/10 06:49:03;;;;;;;41.92;15.45;;;10.00;99.90;;;;;;4926541;28;20053;-69
2022/11/10 06:51:28;;;;;;;29.25;12.55;;;10.00;99.90;;;;;;4909367;29;20040;-68
2022/11/10 06:53:54;;;;;;;34.33;12.20;;;10.00;99.90;;;;;;4930681;29;20058;-69
2022/11/10 06:56:20;;;;;;;33.30;11.13;;;10.00;99.90;;;;;;4933434;29;20974;-65
2022/11/10 06:58:46;;;;;;;28.52;6.95;;;10.00;99.90;;;;;;4930073;28;20051;-65
2022/11/10 07:01:12;;;;;;;30.63;7.07;;;10.00;99.90;;;;;;4935096;29;20223;-69
2022/11/10 07:03:38;;;;;;;33.15;7.05;;;10.00;99.90;;;;;;4934241;29;20392;-68
2022/11/10 07:06:05;;;;;;;32.13;7.45;;;10.00;99.90;;;;;;4925891;28;20047;-67
2022/11/10 07:08:30;;;;;;;27.02;5.90;;;10.10;99.90;;;;;;4929662;29;20051;-68
2022/11/10 07:10:56;;;;;;;26.23;5.88;;;10.10;99.90;;;;;;4913945;29;20070;-67
2022/11/10 07:13:23;;;;;;;24.60;6.18;;;10.10;99.90;;;;;;4923721;28;20138;-68
2022/11/10 07:15:49;;;;;;;30.25;8.73;;;10.10;99.90;;;;;;4893146;29;20071;-62
2022/11/10 07:18:15;;;;;;;36.92;12.00;;;10.10;99.90;;;;;;4914977;29;20047;-63
2022/11/10 07:20:41;;;;;;;43.25;13.52;;;10.10;99.90;;;;;;4897677;29;20371;-62
2022/11/10 07:23:07;;;;;;;40.72;14.15;;;10.20;99.90;;;;;;4889938;29;20499;-63
2022/11/10 07:25:35;;;;;;;44.28;16.27;;;10.20;99.90;;;;;;4894600;29;20044;-63
2022/11/10 07:28:03;;;;;;;38.33;15.18;;;10.20;99.90;;;;;;4895515;29;20052;-66
2022/11/10 07:30:31;;;;;;;39.50;13.93;;;10.20;99.90;;;;;;4914404;29;20044;-63
2022/11/10 07:33:05;;;;;;;38.58;15.18;;;10.20;99.90;;;;;;4905391;29;20056;-63
2022/11/10 07:35:32;;;;;;;38.40;14.40;;;10.20;99.90;;;;;;4900195;29;20048;-63
2022/11/10 07:38:02;;;;;;;32.72;10.98;;;10.20;99.90;;;;;;4914399;29;20051;-63
2022/11/10 07:40:29;;;;;;;44.53;14.35;;;10.20;99.90;;;;;;4895093;29;20079;-63
2022/11/10 07:42:55;;;;;;;42.80;14.90;;;10.20;99.90;;;;;;4898440;29;20059;-63
2022/11/10 07:45:20;;;;;;;35.78;13.25;;;10.20;99.90;;;;;;4903933;29;20056;-63
2022/11/10 07:47:46;;;;;;;44.33;15.88;;;10.20;99.90;;;;;;4918884;29;20051;-63
2022/11/10 07:50:12;;;;;;;47.80;15.93;;;10.20;99.90;;;;;;4909080;29;20750;-63
2022/11/10 07:52:38;;;;;;;45.75;12.63;;;10.20;99.90;;;;;;4916601;29;20051;-63
2022/11/10 07:55:05;;;;;;;36.00;10.25;;;10.30;99.90;;;;;;4903123;29;20055;-63
2022/11/10 07:57:32;;;;;;;43.85;15.90;;;10.30;99.90;;;;;;4915652;29;20051;-63
2022/11/10 07:59:58;;;;;;;36.50;13.07;;;10.30;99.90;;;;;;4916175;29;20107;-62
2022/11/10 08:02:24;;;;;;;33.33;11.98;;;10.30;99.90;;;;;;4902723;29;20048;-63
2022/11/10 08:04:50;;;;;;;23.50;5.97;;;10.30;99.90;;;;;;4903523;29;20126;-63
2022/11/10 08:07:16;;;;;;;33.92;6.90;;;10.30;99.90;;;;;;4886742;29;20043;-63
2022/11/10 08:09:41;;;;;;;34.80;9.45;;;10.30;99.90;;;;;;4914093;29;20054;-64
2022/11/10 08:12:07;;;;;;;26.88;9.32;;;10.40;99.90;;;;;;4902033;29;20123;-63
2022/11/10 08:14:33;;;;;;;27.92;10.05;;;10.40;99.90;;;;;;4928055;29;20063;-64
2022/11/10 08:16:59;;;;;;;32.08;11.05;;;10.50;99.90;;;;;;4937005;28;20110;-63
2022/11/10 08:19:24;;;;;;;32.85;7.50;;;10.50;99.90;;;;;;4934978;29;20217;-63
2022/11/10 08:21:50;;;;;;;25.90;8.02;;;10.50;99.90;;;;;;4934635;29;20055;-64
2022/11/10 08:24:16;;;;;;;30.83;7.43;;;10.60;99.90;;;;;;4928237;28;20086;-64
2022/11/10 08:26:42;;;;;;;25.23;6.40;;;10.60;99.90;;;;;;4946094;28;20150;-63
2022/11/10 08:29:08;;;;;;;31.77;7.70;;;10.70;99.90;;;;;;4936281;28;20490;-63
2022/11/10 08:31:33;;;;;;;29.52;6.38;;;10.70;99.90;;;;;;4924484;29;20052;-63
2022/11/10 08:33:59;;;;;;;26.20;5.68;;;10.80;99.90;;;;;;4931683;29;20051;-63
2022/11/10 08:36:25;;;;;;;21.13;4.70;;;10.90;99.90;;;;;;4935709;29;20051;-63
2022/11/10 08:38:51;;;;;;;30.25;6.25;;;11.00;99.90;;;;;;4930260;29;20481;-63
2022/11/10 08:41:17;;;;;;;24.80;5.72;;;11.00;99.90;;;;;;4933669;29;20113;-63
2022/11/10 08:43:42;;;;;;;28.92;5.75;;;11.10;99.90;;;;;;4918911;29;20051;-63
2022/11/10 08:46:08;;;;;;;30.10;5.57;;;11.10;99.90;;;;;;4934812;28;20061;-63
2022/11/10 08:48:34;;;;;;;25.92;5.15;;;11.20;99.90;;;;;;4930933;29;20055;-64
2022/11/10 08:51:00;;;;;;;19.58;5.07;;;11.20;99.90;;;;;;4933059;29;20137;-64
2022/11/10 08:53:26;;;;;;;30.95;6.03;;;11.20;99.90;;;;;;4936648;29;20051;-64
2022/11/10 08:55:52;;;;;;;19.90;5.18;;;11.20;99.90;;;;;;4936365;29;20074;-64
2022/11/10 08:58:22;;;;;;;25.25;5.70;;;11.30;99.90;;;;;;4937334;29;20098;-64
2022/11/10 09:00:50;;;;;;;26.70;5.63;;;11.30;99.90;;;;;;4935243;29;20063;-63
2022/11/10 09:03:22;;;;;;;22.83;6.25;;;11.40;99.90;;;;;;4931584;29;20047;-64
2022/11/10 09:05:49;;;;;;;27.67;5.38;;;11.50;99.90;;;;;;4936514;29;20051;-62
2022/11/10 09:08:15;;;;;;;20.67;5.22;;;11.60;99.90;;;;;;4931969;29;20052;-63
2022/11/10 09:10:44;;;;;;;26.52;6.10;;;11.60;99.90;;;;;;4935910;28;20280;-62
2022/11/10 09:13:10;;;;;;;24.38;5.78;;;11.70;99.90;;;;;;4936572;29;20079;-63
2022/11/10 09:15:36;;;;;;;23.85;5.25;;;11.70;99.90;;;;;;4917402;29;20091;-63
2022/11/10 09:18:04;;;;;;;22.88;5.53;;;11.80;99.90;;;;;;4919837;29;20087;-64
2022/11/10 09:20:32;;;;;;;31.95;5.85;;;11.90;99.90;;;;;;4915518;29;20048;-63
2022/11/10 09:23:15;;;;;;;26.75;5.78;;;11.90;99.90;;;;;;4915121;29;20153;-64
2022/11/10 09:25:47;;;;;;;25.55;6.00;;;12.10;99.90;;;;;;4902229;29;20048;-64
2022/11/10 09:28:14;;;;;;;26.58;5.70;;;12.10;99.90;;;;;;4917329;29;20052;-64
2022/11/10 09:30:40;;;;;;;29.05;5.72;;;12.20;99.90;;;;;;4914835;29;20052;-63
2022/11/10 09:33:06;;;;;;;25.00;6.28;;;12.30;99.90;;;;;;4896752;29;20115;-64
2022/11/10 09:35:32;;;;;;;29.02;6.90;;;12.30;99.90;;;;;;4913677;29;20083;-63
2022/11/10 09:37:58;;;;;;;24.55;5.95;;;12.40;99.90;;;;;;4897953;29;20582;-63
2022/11/10 09:40:57;;;;;;;26.73;7.28;;;12.40;99.90;;;;;;4911598;29;20039;-63
2022/11/10 09:43:36;;;;;;;30.73;6.93;;;12.50;99.90;;;;;;4902727;29;20040;-63
2022/11/10 09:46:22;;;;;;;31.00;6.70;;;12.50;99.90;;;;;;4913383;29;20063;-63
2022/11/10 09:49:05;;;;;;;25.33;7.53;;;12.50;99.90;;;;;;4915001;29;20056;-63
2022/11/10 09:51:37;;;;;;;34.15;8.15;;;12.50;99.90;;;;;;4917225;29;20127;-64
2022/11/10 09:54:10;;;;;;;37.80;8.30;;;12.50;99.90;;;;;;4917560;29;20040;-64
2022/11/10 09:56:37;;;;;;;31.80;8.55;;;12.50;99.90;;;;;;4894364;29;20047;-63
2022/11/10 09:59:11;;;;;;;32.95;9.13;;;12.60;99.90;;;;;;4917114;29;20040;-63
2022/11/10 10:01:58;;;;;;;26.52;9.90;;;12.60;99.90;;;;;;4916064;29;20039;-64
2022/11/10 10:04:39;;;;;;;24.75;8.93;;;12.50;99.90;;;;;;4918791;29;20122;-63
2022/11/10 10:07:15;;;;;;;34.13;9.65;;;12.60;99.90;;;;;;4918366;29;20490;-64
2022/11/10 10:09:59;;;;;;;24.10;8.43;;;12.60;99.90;;;;;;4904045;29;20123;-64
2022/11/10 10:12:41;;;;;;;33.88;8.68;;;12.60;99.90;;;;;;4913162;29;20040;-64
2022/11/10 10:15:36;;;;;;;30.27;9.47;;;12.60;99.90;;;;;;4933622;29;20055;-64
2022/11/10 10:18:33;;;;;;;25.20;8.68;;;12.70;99.90;;;;;;4936868;28;20083;-62
2022/11/10 10:21:05;;;;;;;25.92;9.00;;;12.70;99.90;;;;;;4931032;29;20386;-63
2022/11/10 10:23:33;;;;;;;29.73;8.75;;;12.70;99.90;;;;;;4937091;29;20421;-64
2022/11/10 10:26:00;;;;;;;28.58;8.10;;;12.80;99.90;;;;;;4933947;29;20046;-64
2022/11/10 10:28:37;;;;;;;27.65;8.18;;;12.90;99.90;;;;;;4935643;29;20094;-64
2022/11/10 10:31:17;;;;;;;26.30;7.13;;;12.90;99.90;;;;;;4941625;28;20122;-64
2022/11/10 10:33:44;;;;;;;22.08;7.35;;;12.80;99.90;;;;;;4932911;29;20053;-63
2022/11/10 10:36:29;;;;;;;30.25;7.20;;;12.80;99.90;;;;;;4934094;29;20061;-64
2022/11/10 10:39:12;;;;;;;19.48;6.80;;;12.90;99.90;;;;;;4940774;29;20109;-63
2022/11/10 10:41:40;;;;;;;28.42;7.43;;;12.90;99.90;;;;;;4936866;28;20741;-64
2022/11/10 10:44:12;;;;;;;24.33;7.15;;;12.90;99.90;;;;;;4947055;28;20062;-64
2022/11/10 10:46:59;;;;;;;23.40;7.50;;;13.00;99.90;;;;;;4935704;29;21066;-64
2022/11/10 10:49:27;;;;;;;27.27;7.75;;;13.10;99.90;;;;;;4934644;28;20047;-63
2022/11/10 10:52:11;;;;;;;26.42;7.30;;;13.20;99.90;;;;;;4937291;28;20064;-62
2022/11/10 10:54:37;;;;;;;20.63;6.28;;;13.30;99.90;;;;;;4939438;28;20502;-63
2022/11/10 10:57:03;;;;;;;25.95;7.35;;;13.30;99.90;;;;;;4935237;28;20039;-64
2022/11/10 10:59:29;;;;;;;22.48;6.55;;;13.20;99.90;;;;;;4924063;28;20050;-64
2022/11/10 11:01:55;;;;;;;18.48;5.93;;;13.30;99.90;;;;;;4934983;29;20039;-64
2022/11/10 11:04:27;;;;;;;26.38;6.55;;;13.40;99.90;;;;;;4924859;29;20051;-64
2022/11/10 11:07:03;;;;;;;22.05;6.50;;;13.40;99.90;;;;;;4931760;29;20071;-64
2022/11/10 11:09:39;;;;;;;30.45;6.40;;;13.50;99.90;;;;;;4936100;29;20038;-63
2022/11/10 11:12:13;;;;;;;30.17;7.18;;;13.60;99.90;;;;;;4940834;29;20039;-64
2022/11/10 11:14:39;;;;;;;27.42;6.65;;;13.60;99.90;;;;;;4925449;29;20048;-63
2022/11/10 11:17:20;;;;;;;23.10;6.18;;;13.60;99.90;;;;;;4915927;29;20048;-63
2022/11/10 11:19:50;;;;;;;21.33;6.20;;;13.60;99.90;;;;;;4899835;29;20059;-63
2022/11/10 11:22:50;;;;;;;31.13;6.63;;;13.60;99.90;;;;;;4915226;29;20047;-64
2022/11/10 11:25:37;;;;;;;25.90;6.50;;;13.60;99.90;;;;;;4902267;29;20048;-64
2022/11/10 11:28:28;;;;;;;24.88;5.07;;;13.60;99.90;;;;;;4893165;29;20127;-63
2022/11/10 11:30:56;;;;;;;27.08;6.13;;;13.60;99.90;;;;;;4915005;29;20052;-63
2022/11/10 11:34:00;;;;;;;24.45;5.45;;;13.50;99.90;;;;;;4904164;29;20050;-63
2022/11/10 11:36:37;;;;;;;24.85;5.65;;;13.60;99.90;;;;;;4916821;29;20047;-63
2022/11/10 11:39:35;;;;;;;21.85;4.75;;;13.60;99.90;;;;;;4895447;29;20510;-63
2022/11/10 11:42:15;;;;;;;25.55;5.60;;;13.50;99.90;;;;;;4894384;29;20158;-64
2022/11/10 11:45:09;;;;;;;24.48;5.65;;;13.60;99.90;;;;;;4902517;29;20503;-63
2022/11/10 11:47:44;;;;;;;22.17;5.43;;;13.50;99.90;;;;;;4905538;29;20047;-63
2022/11/10 11:50:44;;;;;;;25.60;5.05;;;13.50;99.90;;;;;;4904343;29;20079;-63
2022/11/10 11:53:21;;;;;;;18.70;4.75;;;13.50;99.90;;;;;;4898262;29;20510;-64
2022/11/10 11:56:25;;;;;;;25.83;5.10;;;13.50;99.90;;;;;;4917079;29;20506;-64
2022/11/10 11:58:50;;;;;;;;;;;13.60;99.90;;;;;;4915540;29;20051;-64
2022/11/10 12:01:29;;;;;;;28.30;5.50;;;13.60;99.90;;;;;;4898674;29;19923;-63
2022/11/10 12:04:16;;;;;;;24.55;4.78;;;13.60;99.90;;;;;;4916372;29;20142;-64
2022/11/10 12:07:20;;;;;;;19.92;4.55;;;13.70;99.90;;;;;;4897990;29;20072;-64
2022/11/10 12:10:18;;;;;;;23.15;4.13;;;13.70;99.90;;;;;;4917165;29;20070;-64
2022/11/10 12:13:07;;;;;;;22.30;4.53;;;13.70;99.90;;;;;;4914612;29;20413;-64
2022/11/10 12:16:19;;;;;;;22.98;4.60;;;13.70;99.90;;;;;;4915441;29;20411;-64
2022/11/10 12:19:08;;;;;;;25.30;4.43;;;13.70;99.90;;;;;;4915160;29;20118;-64
2022/11/10 12:22:02;;;;;;;17.73;3.92;;;13.70;99.90;;;;;;4914757;29;20048;-63
2022/11/10 12:24:52;;;;;;;25.88;4.53;;;13.70;99.90;;;;;;4916776;29;20122;-64
2022/11/10 12:27:24;;;;;;;21.45;4.15;;;13.60;99.90;;;;;;4903682;29;20367;-64
2022/11/10 12:30:07;;;;;;;;;;;13.60;99.90;;;;;;4917207;29;20036;-64
2022/11/10 12:32:51;;;;;;;24.05;3.70;;;13.60;99.90;;;;;;4914752;29;20533;-63
2022/11/10 12:35:25;;;;;;;25.05;3.85;;;13.50;99.90;;;;;;4914186;29;20051;-64
2022/11/10 12:38:28;;;;;;;31.77;4.03;;;13.50;99.90;;;;;;4907214;29;20051;-64
2022/11/10 12:41:01;;;;;;;18.08;4.13;;;13.50;99.90;;;;;;4890918;29;20059;-64
2022/11/10 12:43:32;;;;;;;23.67;4.00;;;13.50;99.90;;;;;;4908103;29;20731;-64
2022/11/10 12:46:03;;;;;;;25.92;4.75;;;13.50;99.90;;;;;;4910287;29;20052;-64
2022/11/10 12:48:46;;;;;;;22.95;3.90;;;13.50;99.90;;;;;;4892313;29;20055;-64
2022/11/10 12:51:18;;;;;;;20.30;3.85;;;13.50;99.90;;;;;;4907054;29;20150;-63
2022/11/10 12:53:46;;;;;;;21.60;4.10;;;13.50;99.90;;;;;;4910122;29;20040;-64
2022/11/10 12:56:23;;;;;;;21.23;3.75;;;13.50;99.90;;;;;;4913153;29;20087;-64
2022/11/10 12:59:23;;;;;;;22.83;3.63;;;13.50;99.90;;;;;;4913475;29;20052;-63
2022/11/10 13:02:00;;;;;;;20.20;3.92;;;13.50;99.90;;;;;;4901121;29;20043;-63
2022/11/10 13:04:27;;;;;;;21.33;3.88;;;13.50;99.90;;;;;;4913494;29;20043;-63
2022/11/10 13:06:59;;;;;;;21.90;4.18;;;13.50;99.90;;;;;;4915650;29;20837;-63
2022/11/10 13:09:33;;;;;;;22.00;4.03;;;13.50;99.90;;;;;;4914467;29;20043;-64